createdAt,value
2022-08-14T00:01:17.770Z,11.70
2022-08-14T00:05:27.518Z,11.77
2022-08-14T00:09:33.030Z,12.37
2022-08-14T00:13:37.855Z,12.37
2022-08-14T00:17:47.474Z,11.67
2022-08-14T00:21:56.569Z,12.90
2022-08-14T00:26:06.481Z,11.80
2022-08-14T00:30:17.332Z,12.63
2022-08-14T00:34:36.162Z,11.47
2022-08-14T00:38:41.593Z,12.60
2022-08-14T00:42:55.463Z,11.17
2022-08-14T00:47:02.349Z,12.13
2022-08-14T00:51:06.889Z,11.30
2022-08-14T00:55:10.954Z,11.37
2022-08-14T00:59:17.191Z,12.60
2022-08-14T01:03:22.247Z,11.20
2022-08-14T01:07:28.650Z,10.53
2022-08-14T01:11:45.112Z,11.70
2022-08-14T01:16:03.168Z,10.60
2022-08-14T01:20:34.967Z,11.33
2022-08-14T01:24:44.705Z,11.30
2022-08-14T01:28:56.752Z,10.93
2022-08-14T01:33:02.499Z,11.83
2022-08-14T01:37:07.582Z,12.60
2022-08-14T01:41:19.855Z,11.83
2022-08-14T01:45:26.544Z,11.70
2022-08-14T01:49:35.429Z,11.00
2022-08-14T01:53:41.843Z,12.60
2022-08-14T01:58:00.523Z,11.97
2022-08-14T02:02:18.981Z,11.30
2022-08-14T02:06:33.368Z,11.50
2022-08-14T02:10:45.931Z,11.83
2022-08-14T02:15:00.728Z,13.67
2022-08-14T02:19:07.766Z,11.40
2022-08-14T02:23:11.537Z,11.73
2022-08-14T02:28:25.045Z,13.13
2022-08-14T02:31:43.410Z,11.67
2022-08-14T02:35:53.409Z,11.00
2022-08-14T02:40:02.647Z,11.33
2022-08-14T02:44:10.928Z,12.17
2022-08-14T02:49:01.698Z,11.77
2022-08-14T02:52:57.145Z,11.77
2022-08-14T02:57:16.680Z,12.10
2022-08-14T03:01:50.060Z,11.70
2022-08-14T03:05:55.615Z,11.20
2022-08-14T03:10:27.653Z,10.50
2022-08-14T03:14:27.648Z,11.10
2022-08-14T03:18:32.728Z,12.60
2022-08-14T03:22:37.668Z,11.77
2022-08-14T03:26:46.993Z,11.90
2022-08-14T03:30:54.754Z,12.07
2022-08-14T03:34:58.454Z,11.60
2022-08-14T03:39:15.183Z,11.73
2022-08-14T03:43:24.384Z,11.60
2022-08-14T03:47:46.522Z,13.07
2022-08-14T03:52:00.883Z,13.43
2022-08-14T03:56:07.989Z,13.30
2022-08-14T04:00:40.258Z,11.77
2022-08-14T04:04:38.278Z,13.60
2022-08-14T04:08:44.235Z,15.67
2022-08-14T04:12:51.781Z,12.63
2022-08-14T04:16:55.350Z,13.87
2022-08-14T04:20:59.289Z,12.30
2022-08-14T04:25:05.109Z,12.37
2022-08-14T04:29:14.809Z,13.10
2022-08-14T04:33:20.891Z,13.53
2022-08-14T04:37:45.200Z,14.17
2022-08-14T04:42:09.249Z,13.97
2022-08-14T04:46:56.822Z,14.07
2022-08-14T04:50:45.492Z,13.17
2022-08-14T04:54:57.781Z,14.00
2022-08-14T04:59:09.645Z,13.67
2022-08-14T05:03:15.553Z,13.27
2022-08-14T05:07:19.509Z,13.10
2022-08-14T05:11:44.334Z,13.73
2022-08-14T05:15:52.538Z,13.67
2022-08-14T05:21:10.897Z,13.90
2022-08-14T05:24:22.099Z,13.80
2022-08-14T05:28:28.908Z,13.20
2022-08-14T05:32:33.842Z,14.23
2022-08-14T05:36:50.539Z,13.33
2022-08-14T05:41:06.418Z,13.60
2022-08-14T05:45:14.926Z,13.63
2022-08-14T05:49:20.132Z,14.37
2022-08-14T05:53:27.255Z,14.33
2022-08-14T05:57:30.930Z,13.33
2022-08-14T06:01:34.387Z,13.10
2022-08-14T06:05:39.583Z,12.73
2022-08-14T06:09:50.965Z,14.47
2022-08-14T06:13:55.837Z,12.60
2022-08-14T06:18:01.754Z,12.97
2022-08-14T06:22:05.521Z,13.70
2022-08-14T06:26:11.345Z,13.60
2022-08-14T06:30:17.973Z,12.43
2022-08-14T06:35:02.718Z,13.50
2022-08-14T06:38:45.173Z,11.27
2022-08-14T06:42:55.898Z,11.13
2022-08-14T06:46:59.708Z,11.70
2022-08-14T06:51:03.642Z,11.70
2022-08-14T06:55:08.798Z,10.80
2022-08-14T06:59:19.974Z,10.20
2022-08-14T07:03:41.484Z,9.67
2022-08-14T07:07:47.715Z,9.17
2022-08-14T07:11:51.122Z,10.03
2022-08-14T07:15:58.540Z,9.30
2022-08-14T07:20:03.294Z,9.03
2022-08-14T07:24:09.671Z,8.93
2022-08-14T07:28:29.454Z,9.67
2022-08-14T07:32:35.493Z,9.00
2022-08-14T07:36:39.598Z,8.40
2022-08-14T07:41:01.876Z,8.43
2022-08-14T07:45:06.022Z,8.00
2022-08-14T07:49:12.338Z,8.77
2022-08-14T07:53:21.845Z,8.23
2022-08-14T07:57:26.503Z,8.43
2022-08-14T08:01:31.387Z,7.10
2022-08-14T08:05:36.780Z,7.77
2022-08-14T08:09:46.469Z,7.70
2022-08-14T08:14:00.134Z,7.07
2022-08-14T08:18:05.321Z,7.43
2022-08-14T08:22:09.968Z,6.90
2022-08-14T08:26:13.312Z,7.27
2022-08-14T08:30:17.581Z,7.13
2022-08-14T08:34:23.594Z,6.77
2022-08-14T08:39:18.382Z,6.33
2022-08-14T08:42:54.362Z,7.13
2022-08-14T08:47:06.409Z,6.50
2022-08-14T08:51:10.363Z,7.00
2022-08-14T08:55:17.736Z,6.70
2022-08-14T08:59:27.113Z,5.80
2022-08-14T09:03:37.857Z,6.20
2022-08-14T09:07:47.794Z,6.17
2022-08-14T09:11:56.175Z,5.70
2022-08-14T09:16:18.576Z,5.43
2022-08-14T09:20:26.449Z,6.47
2022-08-14T09:24:35.278Z,6.10
2022-08-14T09:28:48.778Z,5.37
2022-08-14T09:33:12.395Z,5.47
2022-08-14T09:37:29.355Z,5.83
2022-08-14T09:42:20.509Z,6.37
2022-08-14T09:46:10.785Z,5.83
2022-08-14T09:50:25.717Z,5.40
2022-08-14T09:54:39.194Z,5.20
2022-08-14T09:58:45.108Z,5.87
2022-08-14T10:03:05.848Z,5.60
2022-08-14T10:07:10.269Z,5.33
2022-08-14T10:11:23.476Z,5.90
2022-08-14T10:15:29.764Z,6.30
2022-08-14T10:19:36.491Z,5.70
2022-08-14T10:23:44.594Z,5.30
2022-08-14T10:28:00.337Z,5.93
2022-08-14T10:32:17.653Z,6.03
2022-08-14T10:36:37.019Z,5.80
2022-08-14T10:40:52.222Z,5.67
2022-08-14T10:45:02.596Z,5.57
2022-08-14T10:49:18.834Z,5.60
2022-08-14T10:53:40.087Z,5.63
2022-08-14T10:57:52.618Z,5.80
2022-08-14T11:01:58.190Z,5.80
2022-08-14T11:06:15.413Z,6.13
2022-08-14T11:10:20.669Z,6.20
2022-08-14T11:14:28.304Z,5.93
2022-08-14T11:18:36.159Z,5.90
2022-08-14T11:22:52.429Z,5.60
2022-08-14T11:27:03.691Z,5.03
2022-08-14T11:31:11.499Z,5.60
2022-08-14T11:35:16.382Z,5.47
2022-08-14T11:39:35.030Z,5.20
2022-08-14T11:43:45.775Z,6.77
2022-08-14T11:48:13.642Z,5.90
2022-08-14T11:52:34.680Z,5.13
2022-08-14T11:56:44.204Z,5.80
2022-08-14T12:00:52.630Z,4.83
2022-08-14T12:04:59.716Z,6.23
2022-08-14T12:09:03.632Z,5.50
2022-08-14T12:13:14.151Z,5.83
2022-08-14T12:17:23.939Z,6.07
2022-08-14T12:21:29.523Z,5.63
2022-08-14T12:25:36.567Z,4.87
2022-08-14T12:29:52.635Z,4.90
2022-08-14T12:34:02.379Z,4.70
2022-08-14T12:38:20.898Z,5.77
2022-08-14T12:42:38.654Z,5.87
2022-08-14T12:46:46.778Z,5.03
2022-08-14T12:50:52.521Z,5.20
2022-08-14T12:55:06.146Z,4.90
2022-08-14T12:59:10.546Z,5.50
2022-08-14T13:03:27.004Z,5.20
2022-08-14T13:07:33.176Z,5.73
2022-08-14T13:11:41.385Z,5.13
2022-08-14T13:15:57.164Z,5.37
2022-08-14T13:20:03.150Z,5.70
2022-08-14T13:24:17.129Z,4.80
2022-08-14T13:28:32.611Z,5.13
2022-08-14T13:32:41.048Z,5.60
2022-08-14T13:36:54.262Z,5.43
2022-08-14T13:41:10.204Z,5.50
2022-08-14T13:45:15.667Z,5.20
2022-08-14T13:49:20.600Z,4.60
2022-08-14T13:53:33.862Z,4.63
2022-08-14T13:57:49.351Z,4.93
2022-08-14T14:02:09.171Z,5.17
2022-08-14T14:06:21.468Z,4.70
2022-08-14T14:10:29.921Z,4.57
2022-08-14T14:14:51.021Z,5.20
2022-08-14T14:19:06.908Z,5.07
2022-08-14T14:23:17.543Z,4.37
2022-08-14T14:27:40.430Z,4.47
2022-08-14T14:31:49.146Z,5.07
2022-08-14T14:35:53.047Z,4.30
2022-08-14T14:40:54.069Z,4.57
2022-08-14T14:44:24.104Z,5.17
2022-08-14T14:48:31.691Z,5.10
2022-08-14T14:52:37.198Z,5.03
2022-08-14T14:56:50.916Z,5.40
2022-08-14T15:00:59.916Z,52.23
2022-08-14T15:05:05.438Z,4.47
2022-08-14T15:09:09.876Z,4.83
2022-08-14T15:13:21.259Z,5.20
2022-08-14T15:17:25.092Z,5.27
2022-08-14T15:21:35.027Z,6.07
2022-08-14T15:25:39.617Z,5.47
2022-08-14T15:29:43.506Z,5.23
2022-08-14T15:34:44.380Z,5.43
2022-08-14T15:38:33.016Z,5.37
2022-08-14T15:42:41.353Z,6.83
2022-08-14T15:46:45.612Z,5.20
2022-08-14T15:50:49.239Z,5.10
2022-08-14T15:54:55.731Z,5.33
2022-08-14T15:58:59.531Z,5.30
2022-08-14T16:03:04.491Z,5.70
2022-08-14T16:07:12.038Z,5.30
2022-08-14T16:11:17.607Z,5.17
2022-08-14T16:15:22.527Z,5.50
2022-08-14T16:19:30.462Z,5.37
2022-08-14T16:23:36.576Z,5.37
2022-08-14T16:27:43.216Z,4.90
2022-08-14T16:31:47.010Z,5.93
2022-08-14T16:35:55.781Z,4.90
2022-08-14T16:40:03.924Z,5.13
2022-08-14T16:44:23.179Z,5.77
2022-08-14T16:48:57.106Z,6.03
2022-08-14T16:53:00.939Z,5.17
2022-08-14T16:57:18.454Z,5.60
2022-08-14T17:01:27.210Z,5.97
2022-08-14T17:05:32.380Z,5.90
2022-08-14T17:09:43.385Z,5.60
2022-08-14T17:14:00.390Z,5.57
2022-08-14T17:18:06.367Z,5.50
2022-08-14T17:22:11.844Z,5.50
2022-08-14T17:26:35.136Z,5.57
2022-08-14T17:30:50.461Z,5.87
2022-08-14T17:34:57.974Z,6.47
2022-08-14T17:39:08.681Z,6.60
2022-08-14T17:43:15.129Z,6.53
2022-08-14T17:47:20.544Z,6.20
2022-08-14T17:51:29.882Z,6.90
2022-08-14T17:56:02.766Z,6.90
2022-08-14T18:00:02.293Z,7.17
2022-08-14T18:04:28.035Z,6.60
2022-08-14T18:08:41.209Z,6.70
2022-08-14T18:12:49.967Z,6.93
2022-08-14T18:17:11.128Z,6.90
2022-08-14T18:21:42.400Z,8.10
2022-08-14T18:25:54.619Z,7.00
2022-08-14T18:30:33.119Z,6.70
2022-08-14T18:34:50.952Z,7.10
2022-08-14T18:39:24.115Z,7.47
2022-08-14T18:43:59.158Z,6.83
2022-08-14T18:48:51.051Z,7.50
2022-08-14T18:53:06.864Z,6.57
2022-08-14T18:57:14.746Z,7.10
2022-08-14T19:01:32.566Z,7.03
2022-08-14T19:06:06.799Z,7.77
2022-08-14T19:10:17.142Z,7.03
2022-08-14T19:14:46.728Z,7.37
2022-08-14T19:19:00.523Z,935.40
2022-08-14T19:23:21.319Z,970.70
2022-08-14T19:27:54.638Z,936.60
2022-08-14T19:32:07.330Z,968.10
2022-08-14T19:36:28.811Z,956.33
2022-08-14T19:40:45.145Z,919.40
2022-08-14T19:44:50.547Z,923.37
2022-08-14T19:48:59.189Z,901.10
2022-08-14T19:53:11.842Z,871.60
2022-08-14T19:57:24.336Z,822.87
2022-08-14T20:01:37.094Z,768.20
2022-08-14T20:05:45.510Z,733.80
2022-08-14T20:11:07.902Z,723.83
2022-08-14T20:14:20.948Z,594.83
2022-08-14T20:18:50.028Z,572.23
2022-08-14T20:22:51.496Z,623.57
2022-08-14T20:27:33.745Z,603.70
2022-08-14T20:31:41.101Z,559.80
2022-08-14T20:35:49.618Z,558.23
2022-08-14T20:39:55.740Z,585.80
2022-08-14T20:44:21.125Z,582.13
2022-08-14T20:48:53.204Z,605.57
2022-08-14T20:53:05.733Z,525.00
2022-08-14T20:57:13.951Z,541.23
2022-08-14T21:01:38.617Z,459.13
2022-08-14T21:05:46.494Z,388.50
2022-08-14T21:10:36.373Z,287.53
2022-08-14T21:14:34.114Z,215.50
2022-08-14T21:18:44.956Z,190.17
2022-08-14T21:22:51.350Z,54.03
2022-08-14T21:27:04.419Z,22.67
2022-08-14T21:31:20.368Z,10.00
2022-08-14T21:35:29.749Z,8.40
2022-08-14T21:39:33.494Z,8.17
2022-08-14T21:43:39.741Z,7.43
2022-08-14T21:47:43.539Z,8.73
2022-08-14T21:52:01.515Z,8.70
2022-08-14T21:56:21.442Z,8.20
2022-08-14T22:00:42.808Z,9.17
2022-08-14T22:04:46.619Z,8.93
2022-08-14T22:08:55.850Z,7.73
2022-08-14T22:13:00.839Z,8.00
2022-08-14T22:17:12.586Z,8.50
2022-08-14T22:21:17.225Z,8.80
2022-08-14T22:25:22.168Z,8.20
2022-08-14T22:29:37.168Z,8.17
2022-08-14T22:33:42.989Z,8.50
2022-08-14T22:37:46.472Z,8.80
2022-08-14T22:42:21.389Z,8.20
2022-08-14T22:46:26.365Z,8.67
2022-08-14T22:50:33.579Z,8.50
2022-08-14T22:54:53.144Z,8.83
2022-08-14T22:59:00.264Z,8.63
2022-08-14T23:03:17.191Z,9.90
2022-08-14T23:07:23.425Z,9.10
2022-08-14T23:11:27.487Z,8.70
2022-08-14T23:15:37.488Z,8.60
2022-08-14T23:19:43.359Z,9.00
2022-08-14T23:23:50.162Z,9.30
2022-08-14T23:28:03.498Z,9.63
2022-08-14T23:32:15.456Z,9.57
2022-08-14T23:36:32.400Z,9.07
2022-08-14T23:40:41.377Z,9.80
2022-08-14T23:44:47.260Z,9.87
2022-08-14T23:48:52.470Z,8.67
2022-08-14T23:53:07.462Z,8.27
2022-08-14T23:57:11.611Z,8.80
